Aérodrome :
LOGIN :

S'inscrire | Disclaimer

   EN    FR    IT 

 










Légende :    VFR   VFR Marginal   IFR   IFR Intensif   IFR Très Intensif
Visi : 
Plafond : 
>= 8 km
>= 3000ft
5 à 8 km
1000 à 3000 ft
1500m à 5 km
500 à 1000 ft
800 à 1500m
200 à 500 ft
< 800m
< 200 ft
Symboles :   Orages  Brouillard  Fortes neiges  Fortes précipitations  Vent > 20 kt
SIGMETs :   Divers  Orages  Givrage  Turbulence  Onde Orograph.  Cendres Volcan.






- Altitude de l'aérodrome : 87 ft
- Code IATA : FSC


LFKF - Figari

DERNIER METAR :
  • 232130Z AUTO 00000KT CAVOK 20/18 Q1016 NOSIG

METARs EXPIRÉS :
  • 232100Z AUTO VRB02KT CAVOK 20/18 Q1016 NOSIG
  • 232030Z AUTO VRB02KT CAVOK 21/18 Q1016 NOSIG
  • 232000Z AUTO 02003KT 360V070 CAVOK 22/19 Q1016 NOSIG
  • 231930Z AUTO 17003KT CAVOK 22/19 Q1016 NOSIG
  • 231900Z AUTO VRB02KT CAVOK 25/19 Q1016 NOSIG

TAF TAF LFKF
Valide du 23 à 15h jusqu'au 24 à 15h UTC


231400Z 2315/2415 07010KT 9999 FEW050
TEMPO 2315/2318 24006KT
BECMG 2317/2319 VRB03KT CAVOK
BECMG 2410/2412 27014KT
TEMPO 2412/2415 27015G25KT



MET'MAP, la Météo Aéronautique d'un coup d'oeil ! - Copyright ORBIFLY Décembre 2007 - Disclaimer

ORBIFLY MET'MAP TEAM :

Programmation & Développement : Alexandra Zaïnal
Sur une idée originale de : Baudouin d'Aumeries
Assistance à la programmation : Marc-Olivier Méhu
Soutien technique & logistique : Manuel Goepfert

Contact : metmap@orbifly.com




SOURCES & CREDITS :

   NOAA